Time;durP1;ratioP1;P1;durP2;ratioP2;P2;SDS_P1;SDS_P2;PMS_P1;PMS_P2;Temp;Humidity;BMP_temperature;BMP_pressure;BME280_temperature;BME280_humidity;BME280_pressure;Samples;Min_cycle;Max_cycle;Signal;HPM_P1;HPM_P2
2022/06/05 00:01:08;;;;;;;7.50;4.72;;;;;;;;;;4191121;34;20090;-63
2022/06/05 00:34:37;;;;;;;8.73;3.35;;;;;;;;;;4483858;28;20229;-61
2022/06/05 00:37:20;;;;;;;5.53;3.10;;;;;;;;;;4224192;33;20140;-62
2022/06/05 00:40:00;;;;;;;5.65;3.42;;;;;;;;;;4225271;33;20102;-63
2022/06/05 00:42:30;;;;;;;4.65;3.42;;;;;;;;;;4205627;34;20104;-65
2022/06/05 00:45:00;;;;;;;4.45;3.35;;;;;;;;;;4216771;33;20124;-63
2022/06/05 00:47:30;;;;;;;8.25;3.30;;;;;;;;;;4219588;33;20125;-63
2022/06/05 00:49:59;;;;;;;7.18;3.20;;;;;;;;;;4219283;33;20217;-66
2022/06/05 00:52:31;;;;;;;5.57;4.03;;;;;;;;;;4226690;33;20221;-65
2022/06/05 00:54:57;;;;;;;5.68;3.30;;;;;;;;;;4216953;34;20537;-66
2022/06/05 00:57:27;;;;;;;4.15;3.15;;;;;;;;;;4218304;34;20212;-66
2022/06/05 00:59:54;;;;;;;6.00;3.95;;;;;;;;;;4218219;34;20117;-66
2022/06/05 01:02:20;;;;;;;5.97;3.30;;;;;;;;;;4218263;34;20109;-63
2022/06/05 01:04:49;;;;;;;5.53;3.33;;;;;;;;;;4205187;34;20211;-63
2022/06/05 01:07:15;;;;;;;4.78;3.55;;;;;;;;;;4218165;34;20097;-63
2022/06/05 01:09:42;;;;;;;6.47;3.28;;;;;;;;;;4211528;33;20529;-63
2022/06/05 01:12:26;;;;;;;4.87;3.40;;;;;;;;;;4219324;33;20105;-63
2022/06/05 01:15:21;;;;;;;4.93;3.05;;;;;;;;;;4230693;33;20108;-63
2022/06/05 01:17:51;;;;;;;7.67;3.40;;;;;;;;;;4193721;33;20129;-65
2022/06/05 01:20:19;;;;;;;6.07;3.40;;;;;;;;;;4231994;33;20553;-67
2022/06/05 01:23:16;;;;;;;4.78;3.28;;;;;;;;;;4232093;33;20619;-67
2022/06/05 01:25:57;;;;;;;5.07;3.33;;;;;;;;;;4232120;33;20105;-66
2022/06/05 01:28:25;;;;;;;5.75;3.30;;;;;;;;;;4231943;33;20203;-67
2022/06/05 01:31:00;;;;;;;6.00;3.20;;;;;;;;;;4218798;33;20097;-67
2022/06/05 01:33:28;;;;;;;3.78;3.20;;;;;;;;;;4218792;33;20133;-68
2022/06/05 01:36:01;;;;;;;6.22;3.22;;;;;;;;;;4231179;33;20119;-66
2022/06/05 01:38:39;;;;;;;9.07;3.15;;;;;;;;;;4204963;34;20188;-66
2022/06/05 01:41:25;;;;;;;8.73;3.33;;;;;;;;;;4204996;34;20145;-67
2022/06/05 01:43:54;;;;;;;7.45;3.00;;;;;;;;;;4205249;34;20114;-67
2022/06/05 01:46:24;;;;;;;4.15;3.37;;;;;;;;;;4204860;34;20170;-67
2022/06/05 01:48:58;;;;;;;10.07;3.33;;;;;;;;;;4204902;34;20101;-67
2022/06/05 01:51:33;;;;;;;9.70;4.60;;;;;;;;;;4219933;34;20104;-65
2022/06/05 01:54:01;;;;;;;6.20;3.17;;;;;;;;;;4207079;34;20126;-66
2022/06/05 01:56:35;;;;;;;4.90;3.10;;;;;;;;;;4206887;34;20102;-66
2022/06/05 01:59:13;;;;;;;7.80;3.27;;;;;;;;;;4206958;34;20214;-67
2022/06/05 02:01:42;;;;;;;4.15;3.17;;;;;;;;;;4219812;34;20703;-66
2022/06/05 02:04:34;;;;;;;4.00;3.30;;;;;;;;;;4195287;34;20097;-67
2022/06/05 02:07:05;;;;;;;4.28;3.10;;;;;;;;;;4207128;34;20438;-66
2022/06/05 02:09:37;;;;;;;4.80;3.12;;;;;;;;;;4206766;34;20097;-67
2022/06/05 02:12:05;;;;;;;7.22;3.62;;;;;;;;;;4230353;33;20211;-67
2022/06/05 02:14:31;;;;;;;7.28;3.65;;;;;;;;;;4232363;33;20528;-67
2022/06/05 02:16:58;;;;;;;3.83;2.97;;;;;;;;;;4233673;33;20093;-67
2022/06/05 02:19:24;;;;;;;11.40;3.80;;;;;;;;;;4233986;33;20128;-66
2022/06/05 02:21:53;;;;;;;5.30;2.92;;;;;;;;;;4233992;33;20109;-67
2022/06/05 02:24:19;;;;;;;6.12;3.20;;;;;;;;;;4233785;33;20120;-66
2022/06/05 02:26:45;;;;;;;7.20;3.40;;;;;;;;;;4233760;33;20542;-67
2022/06/05 02:29:16;;;;;;;6.07;3.42;;;;;;;;;;4233921;33;20131;-65
2022/06/05 02:31:54;;;;;;;8.38;3.60;;;;;;;;;;4220726;33;20114;-66
2022/06/05 02:34:38;;;;;;;6.35;3.15;;;;;;;;;;4233707;33;20104;-66
2022/06/05 02:37:46;;;;;;;9.07;3.58;;;;;;;;;;4229622;33;20121;-66
2022/06/05 02:40:11;;;;;;;5.45;3.50;;;;;;;;;;4213762;34;20419;-69
2022/06/05 02:43:13;;;;;;;7.70;3.40;;;;;;;;;;4219427;34;20229;-69
2022/06/05 02:45:51;;;;;;;12.07;3.53;;;;;;;;;;4219100;34;20125;-68
2022/06/05 02:48:20;;;;;;;4.75;3.10;;;;;;;;;;4219412;34;20089;-68
2022/06/05 02:51:19;;;;;;;6.62;3.20;;;;;;;;;;4219524;34;20101;-68
2022/06/05 02:53:55;;;;;;;6.50;2.83;;;;;;;;;;4198870;34;20214;-68
2022/06/05 02:56:23;;;;;;;8.00;3.08;;;;;;;;;;4219580;34;20109;-69
2022/06/05 02:58:50;;;;;;;7.60;3.10;;;;;;;;;;4219224;34;20113;-69
2022/06/05 03:04:01;;;;;;;4.55;3.10;;;;;;;;;;4208366;34;20141;-70
2022/06/05 03:06:31;;;;;;;6.15;3.05;;;;;;;;;;4219215;34;20102;-70
2022/06/05 03:08:57;;;;;;;8.18;3.22;;;;;;;;;;4219228;34;20200;-69
2022/06/05 03:11:23;;;;;;;7.53;3.37;;;;;;;;;;4219117;34;20094;-69
2022/06/05 03:13:49;;;;;;;3.03;2.65;;;;;;;;;;4219227;34;20108;-70
2022/06/05 03:16:15;;;;;;;3.28;2.85;;;;;;;;;;4218910;34;20105;-69
2022/06/05 03:18:41;;;;;;;3.92;2.70;;;;;;;;;;4219158;34;20129;-70
2022/06/05 03:21:07;;;;;;;8.13;3.10;;;;;;;;;;4218975;34;20191;-70
2022/06/05 03:23:33;;;;;;;5.85;3.40;;;;;;;;;;4219108;34;20534;-68
2022/06/05 03:25:59;;;;;;;4.72;3.00;;;;;;;;;;4219115;34;20196;-70
2022/06/05 03:28:25;;;;;;;9.15;3.67;;;;;;;;;;4219307;34;20117;-70
2022/06/05 03:30:51;;;;;;;5.45;3.10;;;;;;;;;;4219235;34;20113;-69
2022/06/05 03:33:18;;;;;;;4.78;3.03;;;;;;;;;;4206024;34;20117;-70
2022/06/05 03:35:45;;;;;;;9.30;2.78;;;;;;;;;;4218866;34;20521;-70
2022/06/05 03:38:13;;;;;;;3.00;2.70;;;;;;;;;;4219065;34;20510;-70
2022/06/05 03:40:41;;;;;;;3.47;3.05;;;;;;;;;;4218897;34;20088;-70
2022/06/05 03:43:08;;;;;;;7.97;3.05;;;;;;;;;;4205888;34;20185;-70
2022/06/05 03:45:33;;;;;;;4.80;2.92;;;;;;;;;;4218929;34;20277;-68
2022/06/05 03:48:00;;;;;;;7.22;3.17;;;;;;;;;;4218867;34;20093;-68
2022/06/05 03:50:26;;;;;;;7.40;3.03;;;;;;;;;;4205883;34;20096;-68
2022/06/05 03:52:52;;;;;;;10.98;3.10;;;;;;;;;;4218896;34;20257;-68
2022/06/05 03:55:21;;;;;;;6.53;3.22;;;;;;;;;;4205800;34;20117;-69
2022/06/05 03:57:47;;;;;;;7.43;3.22;;;;;;;;;;4206188;34;20308;-68
2022/06/05 04:00:15;;;;;;;3.22;2.92;;;;;;;;;;4218516;34;20296;-68
2022/06/05 04:02:41;;;;;;;7.97;3.47;;;;;;;;;;4219083;34;20186;-70
2022/06/05 04:05:08;;;;;;;3.58;3.03;;;;;;;;;;4218770;34;20443;-70
2022/06/05 04:07:34;;;;;;;5.62;2.92;;;;;;;;;;4218736;34;20131;-69
2022/06/05 04:10:00;;;;;;;4.65;3.08;;;;;;;;;;4218850;34;20156;-68
2022/06/05 04:12:26;;;;;;;4.12;3.00;;;;;;;;;;4218545;34;20125;-68
2022/06/05 04:14:52;;;;;;;7.12;3.42;;;;;;;;;;4218699;34;20212;-74
2022/06/05 04:17:18;;;;;;;4.80;2.87;;;;;;;;;;4218560;34;20117;-68
2022/06/05 04:19:44;;;;;;;8.40;4.07;;;;;;;;;;4218665;34;20125;-67
2022/06/05 04:22:10;;;;;;;5.78;3.17;;;;;;;;;;4218761;34;20126;-67
2022/06/05 04:24:37;;;;;;;5.35;3.70;;;;;;;;;;4218683;34;20394;-68
2022/06/05 04:27:03;;;;;;;3.90;3.50;;;;;;;;;;4218492;34;20117;-67
2022/06/05 04:29:29;;;;;;;3.92;3.47;;;;;;;;;;4218494;34;20121;-67
2022/06/05 04:31:55;;;;;;;4.20;3.40;;;;;;;;;;4218320;34;20263;-68
2022/06/05 04:34:22;;;;;;;10.45;4.18;;;;;;;;;;4218302;34;20131;-68
2022/06/05 04:36:48;;;;;;;7.28;3.47;;;;;;;;;;4218227;34;20098;-68
2022/06/05 04:39:15;;;;;;;4.82;3.75;;;;;;;;;;4205328;34;20591;-67
2022/06/05 04:41:41;;;;;;;9.43;4.18;;;;;;;;;;4218612;34;20090;-67
2022/06/05 04:44:11;;;;;;;8.35;4.55;;;;;;;;;;4218370;34;20125;-67
2022/06/05 04:46:37;;;;;;;8.68;4.55;;;;;;;;;;4205240;34;20125;-66
2022/06/05 04:49:06;;;;;;;10.18;4.45;;;;;;;;;;4218386;34;20283;-68
2022/06/05 04:51:34;;;;;;;10.57;4.37;;;;;;;;;;4218141;34;20193;-68
2022/06/05 04:54:01;;;;;;;4.85;3.85;;;;;;;;;;4205761;34;20110;-68
2022/06/05 04:56:28;;;;;;;4.90;3.75;;;;;;;;;;4216677;34;20193;-62
2022/06/05 04:58:54;;;;;;;6.12;3.75;;;;;;;;;;4218133;34;20184;-63
2022/06/05 05:01:31;;;;;;;9.40;4.47;;;;;;;;;;4216871;34;20116;-70
2022/06/05 05:03:59;;;;;;;4.30;3.90;;;;;;;;;;4205563;34;20193;-67
2022/06/05 05:06:26;;;;;;;9.15;4.22;;;;;;;;;;4218093;34;20113;-63
2022/06/05 05:08:52;;;;;;;6.40;4.03;;;;;;;;;;4218152;34;20567;-63
2022/06/05 05:11:18;;;;;;;5.30;3.83;;;;;;;;;;4217902;34;20122;-63
2022/06/05 05:13:44;;;;;;;5.97;3.53;;;;;;;;;;4218071;34;20137;-62
2022/06/05 05:16:10;;;;;;;6.15;3.30;;;;;;;;;;4217808;34;20204;-60
2022/06/05 05:18:36;;;;;;;9.02;3.47;;;;;;;;;;4217050;34;20129;-61
2022/06/05 05:21:06;;;;;;;5.10;3.50;;;;;;;;;;4203915;34;20113;-62
2022/06/05 05:23:32;;;;;;;3.60;3.00;;;;;;;;;;4216662;34;20105;-62
2022/06/05 05:26:06;;;;;;;3.37;3.03;;;;;;;;;;4218794;34;20426;-62
2022/06/05 05:28:33;;;;;;;10.00;3.63;;;;;;;;;;4217506;34;20140;-62
2022/06/05 05:30:59;;;;;;;4.62;3.37;;;;;;;;;;4206923;34;20108;-62
2022/06/05 05:33:24;;;;;;;5.72;3.70;;;;;;;;;;4220081;34;20105;-62
2022/06/05 05:35:50;;;;;;;4.20;3.50;;;;;;;;;;4218512;34;20112;-61
2022/06/05 05:38:16;;;;;;;7.93;3.28;;;;;;;;;;4219213;34;20195;-61
2022/06/05 05:43:27;;;;;;;6.32;3.05;;;;;;;;;;4219113;34;20114;-60
2022/06/05 05:45:53;;;;;;;6.93;3.10;;;;;;;;;;4195611;34;20201;-62
2022/06/05 05:48:23;;;;;;;3.80;2.87;;;;;;;;;;4219981;34;20141;-60
2022/06/05 05:50:50;;;;;;;4.55;2.72;;;;;;;;;;4207011;34;20129;-63
2022/06/05 05:53:16;;;;;;;6.32;3.67;;;;;;;;;;4219881;34;20106;-62
2022/06/05 05:55:42;;;;;;;3.92;3.15;;;;;;;;;;4219835;34;20102;-62
2022/06/05 05:58:09;;;;;;;7.40;3.22;;;;;;;;;;4219590;34;20105;-61
2022/06/05 06:00:35;;;;;;;5.60;2.83;;;;;;;;;;4219757;34;20101;-64
2022/06/05 06:03:01;;;;;;;3.83;2.47;;;;;;;;;;4219582;34;20101;-62
2022/06/05 06:05:27;;;;;;;6.80;2.85;;;;;;;;;;4206529;34;20129;-63
2022/06/05 06:07:53;;;;;;;6.43;3.25;;;;;;;;;;4219715;34;20355;-64
2022/06/05 06:10:19;;;;;;;5.20;3.28;;;;;;;;;;4206829;34;20101;-63
2022/06/05 06:12:45;;;;;;;5.20;3.20;;;;;;;;;;4219979;34;20097;-63
2022/06/05 06:15:11;;;;;;;4.78;3.08;;;;;;;;;;4219629;34;20120;-63
2022/06/05 06:17:37;;;;;;;5.82;2.97;;;;;;;;;;4206813;34;20106;-64
2022/06/05 06:20:04;;;;;;;6.57;2.95;;;;;;;;;;4219105;34;20133;-63
2022/06/05 06:22:31;;;;;;;6.10;2.53;;;;;;;;;;4219635;34;20117;-64
2022/06/05 06:24:56;;;;;;;3.55;2.42;;;;;;;;;;4219342;34;20544;-63
2022/06/05 06:27:22;;;;;;;5.80;2.60;;;;;;;;;;4219665;34;20109;-64
2022/06/05 06:29:48;;;;;;;2.80;2.53;;;;;;;;;;4219740;34;20112;-63
2022/06/05 06:32:14;;;;;;;2.95;2.62;;;;;;;;;;4219783;34;20129;-62
2022/06/05 06:34:40;;;;;;;4.70;3.00;;;;;;;;;;4206746;34;20494;-62
2022/06/05 06:37:06;;;;;;;3.70;2.97;;;;;;;;;;4219160;34;20093;-63
2022/06/05 06:39:33;;;;;;;4.65;3.05;;;;;;;;;;4217902;34;20152;-63
2022/06/05 06:41:59;;;;;;;4.80;3.53;;;;;;;;;;4206518;34;20526;-63
2022/06/05 06:44:25;;;;;;;2.80;2.50;;;;;;;;;;4219327;34;20098;-63
2022/06/05 06:46:51;;;;;;;5.00;2.65;;;;;;;;;;4219287;34;20109;-62
2022/06/05 06:49:17;;;;;;;2.97;2.67;;;;;;;;;;4219505;34;20115;-62
2022/06/05 06:51:44;;;;;;;4.78;3.00;;;;;;;;;;4219321;34;20180;-63
2022/06/05 06:54:10;;;;;;;4.22;2.35;;;;;;;;;;4219223;34;20109;-62
2022/06/05 06:56:36;;;;;;;3.90;2.50;;;;;;;;;;4219311;34;20102;-61
2022/06/05 06:59:03;;;;;;;4.72;2.75;;;;;;;;;;4219141;34;20121;-63
2022/06/05 07:01:29;;;;;;;3.72;2.80;;;;;;;;;;4218492;34;20127;-63
2022/06/05 07:03:55;;;;;;;3.72;2.62;;;;;;;;;;4216917;34;20553;-63
2022/06/05 07:06:21;;;;;;;5.25;2.40;;;;;;;;;;4204203;34;20125;-62
2022/06/05 07:08:49;;;;;;;3.30;2.90;;;;;;;;;;4217003;34;20152;-63
2022/06/05 07:11:15;;;;;;;3.28;2.80;;;;;;;;;;4217135;34;20475;-63
2022/06/05 07:13:41;;;;;;;2.72;2.53;;;;;;;;;;4217286;34;20433;-63
2022/06/05 07:16:09;;;;;;;3.03;2.30;;;;;;;;;;4217313;34;20204;-62
2022/06/05 07:18:35;;;;;;;5.43;2.72;;;;;;;;;;4218954;34;20151;-63
2022/06/05 07:21:16;;;;;;;2.67;2.47;;;;;;;;;;4218973;34;20125;-62
2022/06/05 07:23:42;;;;;;;6.82;2.80;;;;;;;;;;4219027;34;20167;-63
2022/06/05 07:26:09;;;;;;;5.53;2.50;;;;;;;;;;4218935;34;20121;-63
2022/06/05 07:28:35;;;;;;;3.17;2.47;;;;;;;;;;4205974;34;20212;-63
2022/06/05 07:31:03;;;;;;;4.72;2.60;;;;;;;;;;4218943;34;20612;-63
2022/06/05 07:33:33;;;;;;;5.00;2.60;;;;;;;;;;4218906;34;20467;-64
2022/06/05 07:36:03;;;;;;;7.97;2.53;;;;;;;;;;4218827;34;20217;-63
2022/06/05 07:38:30;;;;;;;2.50;2.30;;;;;;;;;;4218792;34;20125;-63
2022/06/05 07:40:56;;;;;;;4.90;2.62;;;;;;;;;;4218726;34;20628;-63
2022/06/05 07:43:22;;;;;;;6.05;2.62;;;;;;;;;;4218825;34;20141;-62
2022/06/05 07:45:49;;;;;;;2.30;2.10;;;;;;;;;;4218880;34;20104;-63
2022/06/05 07:48:18;;;;;;;2.60;2.40;;;;;;;;;;4218248;34;20112;-63
2022/06/05 07:56:13;;;;;;;2.80;2.50;;;;;;;;;;4218779;34;20114;-63
2022/06/05 07:58:39;;;;;;;3.67;2.10;;;;;;;;;;4218848;34;20142;-61
2022/06/05 08:01:07;;;;;;;6.30;2.67;;;;;;;;;;4218930;34;20125;-62
2022/06/05 08:03:34;;;;;;;2.42;2.22;;;;;;;;;;4218835;34;20131;-63
2022/06/05 08:06:00;;;;;;;5.90;2.50;;;;;;;;;;4218855;34;20105;-63
2022/06/05 08:08:26;;;;;;;2.20;1.98;;;;;;;;;;4218572;34;20122;-63
2022/06/05 08:10:52;;;;;;;4.90;2.97;;;;;;;;;;4218688;34;20164;-63
2022/06/05 08:13:18;;;;;;;2.95;2.50;;;;;;;;;;4218527;34;20235;-63
2022/06/05 08:15:45;;;;;;;3.70;2.10;;;;;;;;;;4217178;34;20536;-62
2022/06/05 08:18:11;;;;;;;3.83;2.15;;;;;;;;;;4218430;34;20117;-63
2022/06/05 08:20:37;;;;;;;2.90;2.20;;;;;;;;;;4218592;34;20196;-63
2022/06/05 08:23:03;;;;;;;3.72;2.20;;;;;;;;;;4218375;34;20120;-63
2022/06/05 08:25:29;;;;;;;3.08;2.30;;;;;;;;;;4218465;34;20235;-63
2022/06/05 08:27:55;;;;;;;3.15;2.25;;;;;;;;;;4218606;34;20598;-62
2022/06/05 08:30:21;;;;;;;2.85;2.33;;;;;;;;;;4218673;34;20125;-61
2022/06/05 08:32:47;;;;;;;2.72;2.00;;;;;;;;;;4218502;34;20136;-61
2022/06/05 08:35:13;;;;;;;5.10;2.08;;;;;;;;;;4218515;34;20212;-61
2022/06/05 08:43:20;;;;;;;3.08;2.28;;;;;;;;;;4218239;34;20125;-61
2022/06/05 08:46:07;;;;;;;4.65;1.92;;;;;;;;;;4205559;34;20204;-61
2022/06/05 08:48:49;;;;;;;6.75;1.90;;;;;;;;;;4205606;34;20200;-61
2022/06/05 08:51:21;;;;;;;4.53;1.95;;;;;;;;;;4205368;34;20555;-60
2022/06/05 08:54:18;;;;;;;4.37;2.10;;;;;;;;;;4218119;34;20098;-62
2022/06/05 08:57:12;;;;;;;4.00;2.15;;;;;;;;;;4215973;34;20101;-60
2022/06/05 08:59:49;;;;;;;2.97;1.90;;;;;;;;;;4214392;34;20462;-61
2022/06/05 09:02:23;;;;;;;4.25;2.20;;;;;;;;;;4205334;34;20284;-62
2022/06/05 09:05:18;;;;;;;3.40;2.35;;;;;;;;;;4205306;34;20109;-61
2022/06/05 09:07:55;;;;;;;3.92;1.92;;;;;;;;;;4218176;34;20131;-60
2022/06/05 09:10:45;;;;;;;2.25;2.05;;;;;;;;;;4205380;34;20105;-61
2022/06/05 09:13:23;;;;;;;4.65;2.30;;;;;;;;;;4218004;34;20537;-61
2022/06/05 09:16:18;;;;;;;3.72;2.12;;;;;;;;;;4205126;34;20208;-61
2022/06/05 09:18:46;;;;;;;4.27;1.90;;;;;;;;;;4208273;34;20117;-61
2022/06/05 09:21:18;;;;;;;4.62;2.03;;;;;;;;;;4204957;34;20228;-61
2022/06/05 09:24:06;;;;;;;4.25;2.33;;;;;;;;;;4218051;34;20109;-62
2022/06/05 09:26:43;;;;;;;4.20;1.98;;;;;;;;;;4218315;34;20524;-64
2022/06/05 09:29:29;;;;;;;2.83;2.33;;;;;;;;;;4204893;34;20537;-62
2022/06/05 09:32:04;;;;;;;5.50;1.80;;;;;;;;;;4204977;34;20124;-62
2022/06/05 09:34:34;;;;;;;2.08;1.90;;;;;;;;;;4204924;34;20555;-62
2022/06/05 09:37:08;;;;;;;3.87;1.95;;;;;;;;;;4204775;34;20089;-63
2022/06/05 09:40:02;;;;;;;2.22;2.03;;;;;;;;;;4217840;34;20108;-62
2022/06/05 09:42:36;;;;;;;2.10;1.90;;;;;;;;;;4206824;34;20524;-62
2022/06/05 09:45:38;;;;;;;4.85;1.90;;;;;;;;;;4217797;34;20100;-63
2022/06/05 09:48:29;;;;;;;4.72;2.10;;;;;;;;;;4204702;34;20136;-63
2022/06/05 09:50:56;;;;;;;4.22;2.00;;;;;;;;;;4218014;34;20096;-63
2022/06/05 09:53:36;;;;;;;4.97;2.00;;;;;;;;;;4204836;34;20713;-62
2022/06/05 09:56:14;;;;;;;5.90;1.95;;;;;;;;;;4217671;34;20113;-62
2022/06/05 09:58:52;;;;;;;2.20;2.00;;;;;;;;;;4204947;34;20135;-62
2022/06/05 10:01:33;;;;;;;1.80;1.70;;;;;;;;;;4204729;34;20097;-63
2022/06/05 10:04:00;;;;;;;2.97;2.00;;;;;;;;;;4204851;34;20117;-62
2022/06/05 10:06:41;;;;;;;2.35;1.90;;;;;;;;;;4204939;34;20106;-62
2022/06/05 10:09:12;;;;;;;2.20;1.90;;;;;;;;;;4204698;34;20120;-62
2022/06/05 10:12:00;;;;;;;2.78;1.83;;;;;;;;;;4206600;34;20116;-62
2022/06/05 10:14:56;;;;;;;4.32;2.37;;;;;;;;;;4219797;34;20109;-62
2022/06/05 10:17:58;;;;;;;7.68;2.35;;;;;;;;;;4219660;34;20453;-63
2022/06/05 10:20:54;;;;;;;4.95;1.70;;;;;;;;;;4206929;34;20121;-62
2022/06/05 10:23:32;;;;;;;3.97;1.95;;;;;;;;;;4219844;34;20105;-62
2022/06/05 10:26:25;;;;;;;3.17;2.12;;;;;;;;;;4219609;34;20155;-63
2022/06/05 10:28:53;;;;;;;2.50;1.90;;;;;;;;;;4206593;34;20518;-63
2022/06/05 10:31:23;;;;;;;7.60;2.00;;;;;;;;;;4206684;34;20120;-61
2022/06/05 10:34:03;;;;;;;6.05;2.00;;;;;;;;;;4219364;34;20150;-62
2022/06/05 10:36:32;;;;;;;2.12;1.90;;;;;;;;;;4219477;34;20105;-61
2022/06/05 10:39:18;;;;;;;6.68;2.20;;;;;;;;;;4219334;34;20510;-62
2022/06/05 10:41:59;;;;;;;8.73;2.00;;;;;;;;;;4206764;34;20112;-61
2022/06/05 10:44:58;;;;;;;4.18;1.98;;;;;;;;;;4206651;34;20148;-62
2022/06/05 10:47:49;;;;;;;2.20;1.80;;;;;;;;;;4206669;34;20203;-62
2022/06/05 10:50:24;;;;;;;2.65;2.00;;;;;;;;;;4219263;34;20204;-62
2022/06/05 10:53:13;;;;;;;4.12;1.95;;;;;;;;;;4206520;34;20131;-62
2022/06/05 10:55:55;;;;;;;2.03;1.83;;;;;;;;;;4219352;34;20565;-62
2022/06/05 10:58:32;;;;;;;2.67;1.62;;;;;;;;;;4219290;34;20156;-63
2022/06/05 11:01:23;;;;;;;2.10;1.85;;;;;;;;;;4206171;34;20613;-62
2022/06/05 11:03:53;;;;;;;2.50;1.70;;;;;;;;;;4219146;34;20140;-62
2022/06/05 11:06:43;;;;;;;2.08;1.90;;;;;;;;;;4206235;34;20109;-63
2022/06/05 11:09:35;;;;;;;2.40;1.55;;;;;;;;;;4219083;34;20097;-62
2022/06/05 11:15:05;;;;;;;2.37;2.17;;;;;;;;;;4219324;34;20129;-63
2022/06/05 11:17:42;;;;;;;3.97;1.67;;;;;;;;;;4220729;34;20487;-61
2022/06/05 11:20:08;;;;;;;2.95;2.12;;;;;;;;;;4207070;34;20200;-62
2022/06/05 11:22:37;;;;;;;6.20;1.90;;;;;;;;;;4219080;34;20237;-60
2022/06/05 11:25:32;;;;;;;2.75;1.87;;;;;;;;;;4206205;34;20109;-60
2022/06/05 11:28:20;;;;;;;7.55;3.08;;;;;;;;;;4181768;34;20213;-60
2022/06/05 11:30:55;;;;;;;5.50;1.70;;;;;;;;;;4220206;34;20177;-61
2022/06/05 11:33:24;;;;;;;;;;;;;;;;;;4220081;34;20145;-61
2022/06/05 11:35:53;;;;;;;1.70;1.60;;;;;;;;;;4218197;34;19992;-62
2022/06/05 11:38:41;;;;;;;4.28;1.92;;;;;;;;;;4219259;34;20110;-61
2022/06/05 11:41:36;;;;;;;1.95;1.77;;;;;;;;;;4219040;34;20120;-62
2022/06/05 11:44:40;;;;;;;2.25;1.85;;;;;;;;;;4205390;34;20656;-62
2022/06/05 11:47:22;;;;;;;1.70;1.60;;;;;;;;;;4218856;34;20540;-61
2022/06/05 11:50:10;;;;;;;3.03;1.98;;;;;;;;;;4206100;34;20200;-62
2022/06/05 11:52:41;;;;;;;3.87;1.60;;;;;;;;;;4218834;34;20148;-61
2022/06/05 11:55:13;;;;;;;1.80;1.70;;;;;;;;;;4219071;34;20527;-62
2022/06/05 11:57:46;;;;;;;1.65;1.55;;;;;;;;;;4218959;34;20215;-62
2022/06/05 12:00:16;;;;;;;3.37;1.80;;;;;;;;;;4218537;34;20109;-62
2022/06/05 12:03:19;;;;;;;2.78;1.70;;;;;;;;;;4206067;34;20097;-62
2022/06/05 12:06:18;;;;;;;2.33;1.90;;;;;;;;;;4218956;34;20114;-61
2022/06/05 12:08:55;;;;;;;2.33;1.77;;;;;;;;;;4205944;34;20225;-62
2022/06/05 12:11:23;;;;;;;3.12;1.95;;;;;;;;;;4205818;34;20131;-62
2022/06/05 12:14:01;;;;;;;3.83;1.60;;;;;;;;;;4205815;34;20202;-62
2022/06/05 12:16:37;;;;;;;2.20;2.00;;;;;;;;;;4218847;34;20193;-62
2022/06/05 12:19:11;;;;;;;2.58;1.90;;;;;;;;;;4205510;34;20097;-61
2022/06/05 12:21:52;;;;;;;1.50;1.40;;;;;;;;;;4218865;34;20121;-62
2022/06/05 12:24:36;;;;;;;1.70;1.60;;;;;;;;;;4218497;34;20204;-62
2022/06/05 12:27:15;;;;;;;1.83;1.73;;;;;;;;;;4217158;34;20485;-62
2022/06/05 12:29:52;;;;;;;3.55;1.90;;;;;;;;;;4218594;34;20121;-62
2022/06/05 12:32:49;;;;;;;1.92;1.58;;;;;;;;;;4205754;34;20121;-62
2022/06/05 12:35:24;;;;;;;2.42;1.62;;;;;;;;;;4205578;34;20128;-62
2022/06/05 12:38:10;;;;;;;;;;;;;;;;;;4205992;34;20109;-61
2022/06/05 12:40:37;;;;;;;1.70;1.60;;;;;;;;;;4196203;34;19980;-61
2022/06/05 12:43:13;;;;;;;5.70;2.10;;;;;;;;;;4205554;34;20125;-61
2022/06/05 12:45:41;;;;;;;1.87;1.77;;;;;;;;;;4205551;34;20112;-61
2022/06/05 12:48:20;;;;;;;1.90;1.60;;;;;;;;;;4205290;34;20109;-61
2022/06/05 12:50:49;;;;;;;2.60;1.85;;;;;;;;;;4205383;34;20120;-61
2022/06/05 12:53:38;;;;;;;3.55;2.10;;;;;;;;;;4218505;34;20113;-62
2022/06/05 12:56:18;;;;;;;1.73;1.62;;;;;;;;;;4218246;34;20116;-62
2022/06/05 12:58:59;;;;;;;1.92;1.73;;;;;;;;;;4205452;34;20188;-62
2022/06/05 13:01:42;;;;;;;1.70;1.60;;;;;;;;;;4205267;34;20176;-62
2022/06/05 13:04:26;;;;;;;2.85;1.80;;;;;;;;;;4205277;34;20133;-62
2022/06/05 13:07:04;;;;;;;1.60;1.50;;;;;;;;;;4205153;34;20129;-62
2022/06/05 13:09:41;;;;;;;1.98;1.50;;;;;;;;;;4205243;34;20101;-62
2022/06/05 13:12:19;;;;;;;3.78;2.10;;;;;;;;;;4205118;34;20533;-62
2022/06/05 13:14:49;;;;;;;3.12;2.30;;;;;;;;;;4218072;34;20572;-61
2022/06/05 13:17:27;;;;;;;2.25;1.80;;;;;;;;;;4205089;34;20210;-61
2022/06/05 13:20:00;;;;;;;3.33;2.20;;;;;;;;;;4217920;34;20109;-62
2022/06/05 13:22:45;;;;;;;5.22;2.00;;;;;;;;;;4218020;34;20582;-62
2022/06/05 13:25:22;;;;;;;8.38;2.00;;;;;;;;;;4205101;34;20113;-61
2022/06/05 13:27:58;;;;;;;5.72;2.25;;;;;;;;;;4205028;34;20084;-60
2022/06/05 13:30:27;;;;;;;3.30;2.00;;;;;;;;;;4204893;34;20136;-59
2022/06/05 13:33:05;;;;;;;5.37;2.12;;;;;;;;;;4204893;34;20552;-61
2022/06/05 13:35:31;;;;;;;2.40;1.70;;;;;;;;;;4218029;34;20154;-60
2022/06/05 13:38:02;;;;;;;1.92;1.83;;;;;;;;;;4217565;34;20533;-61
2022/06/05 13:40:59;;;;;;;2.87;1.90;;;;;;;;;;4190470;34;20437;-61
2022/06/05 13:43:29;;;;;;;2.72;1.70;;;;;;;;;;4217453;34;20113;-60
2022/06/05 13:45:57;;;;;;;3.80;1.73;;;;;;;;;;4218504;34;20096;-60
2022/06/05 13:48:50;;;;;;;1.92;1.65;;;;;;;;;;4226704;33;20092;-60
2022/06/05 13:51:22;;;;;;;4.12;1.80;;;;;;;;;;4212108;33;20212;-61
2022/06/05 13:53:59;;;;;;;1.75;1.62;;;;;;;;;;4224244;33;20522;-60
2022/06/05 13:56:42;;;;;;;1.90;1.80;;;;;;;;;;4218178;33;20098;-62
2022/06/05 13:59:18;;;;;;;5.40;3.08;;;;;;;;;;4192828;34;20193;-61
2022/06/05 14:01:59;;;;;;;2.53;1.92;;;;;;;;;;4204563;34;20121;-62
2022/06/05 14:04:27;;;;;;;3.08;1.92;;;;;;;;;;4204550;34;20109;-60
2022/06/05 14:07:12;;;;;;;3.60;1.87;;;;;;;;;;4232065;33;20200;-61
2022/06/05 14:09:51;;;;;;;3.45;2.00;;;;;;;;;;4220704;33;20192;-62
2022/06/05 14:12:43;;;;;;;4.97;1.90;;;;;;;;;;4225032;33;20098;-60
2022/06/05 14:15:24;;;;;;;3.30;1.87;;;;;;;;;;4198369;33;20116;-61
2022/06/05 14:17:50;;;;;;;6.18;1.95;;;;;;;;;;4225459;33;20159;-62
2022/06/05 14:20:21;;;;;;;8.57;2.10;;;;;;;;;;4219957;33;20529;-62
2022/06/05 14:22:56;;;;;;;2.85;2.00;;;;;;;;;;4207612;33;20117;-61
2022/06/05 14:25:30;;;;;;;5.70;3.00;;;;;;;;;;4208594;34;20120;-61
2022/06/05 14:28:01;;;;;;;4.85;2.40;;;;;;;;;;4200203;33;20133;-60
2022/06/05 14:30:32;;;;;;;3.60;2.00;;;;;;;;;;4219291;33;20117;-62
2022/06/05 14:33:04;;;;;;;3.95;2.55;;;;;;;;;;4229102;33;20133;-61
2022/06/05 14:35:35;;;;;;;3.80;2.20;;;;;;;;;;4227449;33;20115;-60
2022/06/05 14:38:22;;;;;;;5.12;2.10;;;;;;;;;;4220345;33;20562;-61
2022/06/05 14:40:58;;;;;;;2.92;2.10;;;;;;;;;;4204306;34;20208;-60
2022/06/05 14:43:28;;;;;;;13.75;2.65;;;;;;;;;;4206783;34;20232;-62
2022/06/05 14:45:54;;;;;;;11.93;2.50;;;;;;;;;;4206514;34;20531;-62
2022/06/05 14:48:33;;;;;;;4.12;2.40;;;;;;;;;;4219563;34;20129;-60
2022/06/05 14:51:28;;;;;;;3.22;2.20;;;;;;;;;;4206388;34;20508;-61
2022/06/05 14:54:01;;;;;;;4.07;2.25;;;;;;;;;;4200201;34;20557;-61
2022/06/05 14:59:35;;;;;;;4.25;2.15;;;;;;;;;;4219034;34;20176;-62
2022/06/05 15:02:10;;;;;;;2.50;1.87;;;;;;;;;;4205434;34;20224;-59
2022/06/05 15:04:44;;;;;;;4.37;2.10;;;;;;;;;;4205863;34;20102;-64
2022/06/05 15:07:30;;;;;;;5.18;2.15;;;;;;;;;;4178391;34;20132;-60
2022/06/05 15:10:32;;;;;;;4.32;2.22;;;;;;;;;;4206090;34;20113;-62
2022/06/05 15:13:17;;;;;;;2.78;1.98;;;;;;;;;;4207667;34;20118;-63
2022/06/05 15:15:52;;;;;;;3.13;2.23;;;;;;;;;;4221452;33;20089;-61
2022/06/05 15:18:20;;;;;;;3.28;2.00;;;;;;;;;;4221014;33;20191;-60
2022/06/05 15:21:04;;;;;;;2.28;2.00;;;;;;;;;;4223394;33;20172;-61
2022/06/05 15:23:47;;;;;;;2.90;2.03;;;;;;;;;;4219766;33;20144;-61
2022/06/05 15:26:25;;;;;;;2.10;1.90;;;;;;;;;;4192239;33;20227;-61
2022/06/05 15:29:09;;;;;;;6.10;2.03;;;;;;;;;;4222228;33;20152;-61
2022/06/05 15:31:38;;;;;;;8.57;2.25;;;;;;;;;;4223396;33;20494;-59
2022/06/05 15:34:16;;;;;;;7.00;2.10;;;;;;;;;;4213320;34;20104;-62
2022/06/05 15:37:00;;;;;;;4.57;1.98;;;;;;;;;;4221374;33;20527;-61
2022/06/05 15:39:52;;;;;;;3.87;1.80;;;;;;;;;;4232935;33;20109;-60
2022/06/05 15:42:33;;;;;;;4.62;2.20;;;;;;;;;;4216989;33;20609;-60
2022/06/05 15:45:21;;;;;;;7.68;2.70;;;;;;;;;;4219620;33;20127;-61
2022/06/05 15:48:17;;;;;;;3.22;2.00;;;;;;;;;;4231722;33;20529;-61
2022/06/05 15:50:52;;;;;;;6.53;2.28;;;;;;;;;;4233049;33;20104;-61
2022/06/05 15:53:47;;;;;;;2.37;2.15;;;;;;;;;;4232962;33;20219;-61
2022/06/05 15:56:21;;;;;;;6.55;2.35;;;;;;;;;;4208583;33;20571;-60
2022/06/05 15:58:56;;;;;;;4.05;2.12;;;;;;;;;;4218635;33;20229;-59
2022/06/05 16:01:32;;;;;;;4.12;2.20;;;;;;;;;;4208611;34;20113;-61
2022/06/05 16:04:05;;;;;;;2.40;2.20;;;;;;;;;;4208539;34;20120;-61
2022/06/05 16:06:34;;;;;;;3.92;2.37;;;;;;;;;;4191884;34;20118;-61
2022/06/05 16:09:06;;;;;;;4.35;2.72;;;;;;;;;;4204267;34;20452;-58
2022/06/05 16:12:06;;;;;;;10.48;3.47;;;;;;;;;;4205013;34;20142;-61
2022/06/05 16:14:56;;;;;;;11.93;3.17;;;;;;;;;;4178402;34;20133;-62
2022/06/05 16:17:50;;;;;;;6.47;2.33;;;;;;;;;;4191859;34;20460;-62